Time;durP1;ratioP1;P1;durP2;ratioP2;P2;SDS_P1;SDS_P2;PMS_P1;PMS_P2;Temp;Humidity;BMP_temperature;BMP_pressure;BME280_temperature;BME280_humidity;BME280_pressure;Samples;Min_cycle;Max_cycle;Signal;HPM_P1;HPM_P2
2023/06/28 00:06:03;;;;;;;9.18;7.50;;;13.00;99.90;;;;;;4873513;29;20440;-78
2023/06/28 00:12:03;;;;;;;11.07;8.27;;;13.00;99.90;;;;;;5019320;28;20140;-78
2023/06/28 00:15:07;;;;;;;11.73;8.70;;;13.00;99.90;;;;;;4994839;28;20085;-78
2023/06/28 00:18:20;;;;;;;13.50;10.50;;;13.00;99.90;;;;;;4988124;28;20054;-78
2023/06/28 00:21:59;;;;;;;;;;;;;;;;;;;;;
2023/06/28 00:25:20;;;;;;;12.43;9.60;;;12.90;99.90;;;;;;5026873;28;20045;-78
2023/06/28 00:28:19;;;;;;;;;;;;;;;;;;;;;
2023/06/28 00:32:00;;;;;;;12.30;10.32;;;13.00;99.90;;;;;;5011969;28;20230;-78
2023/06/28 00:35:15;;;;;;;10.02;8.25;;;12.90;99.90;;;;;;5016079;28;20131;-78
2023/06/28 00:38:32;;;;;;;11.10;9.43;;;12.90;99.90;;;;;;4994034;28;20125;-78
2023/06/28 00:42:15;;;;;;;12.40;9.57;;;12.90;99.90;;;;;;5017171;28;20117;-78
2023/06/28 00:45:09;;;;;;;10.70;8.07;;;13.00;99.90;;;;;;5014228;28;20100;-78
2023/06/28 00:51:26;;;;;;;;;;;;;;;;;;;;;
2023/06/28 00:54:37;;;;;;;12.55;8.98;;;12.90;99.90;;;;;;5031427;28;20042;-78
2023/06/28 00:57:12;;;;;;;10.75;9.65;;;12.90;99.90;;;;;;4992354;28;20042;-79
2023/06/28 01:03:26;;;;;;;11.32;9.30;;;12.90;99.90;;;;;;4994939;28;20049;-77
2023/06/28 01:06:39;;;;;;;11.77;9.90;;;12.90;99.90;;;;;;5001990;28;20089;-78
2023/06/28 01:09:36;;;;;;;10.85;9.73;;;12.90;99.90;;;;;;4997252;28;20481;-78
2023/06/28 01:12:52;;;;;;;12.13;10.00;;;12.90;99.90;;;;;;4986558;28;20112;-78
2023/06/28 01:15:46;;;;;;;11.50;9.13;;;12.90;99.90;;;;;;4988916;28;20059;-78
2023/06/28 01:18:48;;;;;;;10.02;9.00;;;12.80;99.90;;;;;;4996075;28;20061;-78
2023/06/28 01:22:02;;;;;;;12.25;9.52;;;12.80;99.90;;;;;;4932106;29;20039;-78
2023/06/28 01:24:49;;;;;;;14.40;11.88;;;12.80;99.90;;;;;;4892685;29;20041;-78
2023/06/28 01:39:01;;;;;;;13.40;11.05;;;12.70;99.90;;;;;;4879851;29;20041;-77
2023/06/28 01:46:01;;;;;;;11.07;9.18;;;12.70;99.90;;;;;;4874942;29;20036;-78
2023/06/28 01:49:05;;;;;;;12.40;11.02;;;12.70;99.90;;;;;;4820442;28;20059;-78
2023/06/28 01:56:01;;;;;;;12.23;10.25;;;12.70;99.90;;;;;;5007061;28;20065;-78
2023/06/28 01:58:53;;;;;;;12.63;10.07;;;12.70;99.90;;;;;;4939088;29;20043;-78
2023/06/28 02:02:19;;;;;;;11.23;9.57;;;12.70;99.90;;;;;;4950830;28;20408;-78
2023/06/28 02:06:16;;;;;;;13.63;10.73;;;12.70;99.90;;;;;;4998237;28;20072;-78
2023/06/28 02:17:24;;;;;;;;;;;;;;;;;;;;;
2023/06/28 02:24:50;;;;;;;;;;;;;;;;;;;;;
2023/06/28 02:28:19;;;;;;;;;;;;;;;;;;;;;
2023/06/28 02:34:41;;;;;;;13.07;9.73;;;12.90;99.90;;;;;;4997423;28;20492;-79
2023/06/28 02:37:59;;;;;;;12.90;9.70;;;13.00;99.90;;;;;;4981366;28;20500;-79
2023/06/28 02:42:06;;;;;;;12.00;10.02;;;13.10;99.90;;;;;;5008439;28;20450;-79
2023/06/28 02:45:54;;;;;;;12.75;11.38;;;13.20;99.90;;;;;;4948587;29;20553;-79
2023/06/28 06:54:00;;;;;;;18.70;15.55;;;15.00;99.90;;;;;;5598945;23;20442;-77
2023/06/28 06:56:27;;;;;;;19.20;15.80;;;15.00;99.90;;;;;;4916854;29;20036;-76
2023/06/28 06:58:52;;;;;;;24.30;17.98;;;15.00;99.90;;;;;;4916140;29;20103;-77
2023/06/28 07:01:18;;;;;;;21.98;17.38;;;15.00;99.90;;;;;;4917584;29;20126;-77
2023/06/28 07:03:43;;;;;;;20.35;16.52;;;15.00;99.90;;;;;;4917643;29;20051;-77
2023/06/28 07:06:09;;;;;;;18.83;16.13;;;15.00;99.90;;;;;;4904133;29;20418;-78
2023/06/28 07:08:36;;;;;;;25.58;18.95;;;15.10;99.90;;;;;;4919110;29;20063;-78
2023/06/28 07:11:01;;;;;;;32.03;21.70;;;15.10;99.90;;;;;;4917263;29;20032;-77
2023/06/28 07:13:27;;;;;;;19.02;16.00;;;15.20;99.90;;;;;;4902586;29;20550;-78
2023/06/28 07:15:52;;;;;;;19.48;15.77;;;15.30;99.90;;;;;;4916625;29;20099;-78
2023/06/28 07:18:18;;;;;;;18.58;15.40;;;15.30;99.90;;;;;;4899741;29;20047;-78
2023/06/28 07:20:44;;;;;;;19.17;16.98;;;15.30;99.90;;;;;;4917090;29;20047;-78
2023/06/28 07:23:09;;;;;;;19.63;16.08;;;15.30;99.90;;;;;;4917936;29;20457;-78
2023/06/28 07:25:35;;;;;;;22.60;17.10;;;15.30;99.90;;;;;;4915423;29;20098;-78
2023/06/28 07:28:01;;;;;;;26.77;18.38;;;15.30;99.90;;;;;;4899633;29;20048;-78
2023/06/28 07:30:29;;;;;;;22.83;17.75;;;15.30;99.90;;;;;;4916644;29;20446;-77
2023/06/28 07:32:54;;;;;;;19.63;17.58;;;15.30;99.90;;;;;;4901344;29;20031;-77
2023/06/28 07:35:20;;;;;;;23.50;17.45;;;15.30;99.90;;;;;;4915973;29;20047;-78
2023/06/28 07:37:45;;;;;;;25.00;19.83;;;15.30;99.90;;;;;;4899220;29;20486;-78
2023/06/28 07:40:13;;;;;;;21.67;18.73;;;15.30;99.90;;;;;;4918157;29;20094;-78
2023/06/28 07:42:40;;;;;;;26.15;18.48;;;15.30;99.90;;;;;;4916837;29;20043;-78
2023/06/28 07:45:06;;;;;;;19.02;16.45;;;15.40;99.90;;;;;;4917537;29;20075;-78
2023/06/28 07:47:32;;;;;;;16.95;15.15;;;15.50;99.90;;;;;;4912215;29;20074;-78
2023/06/28 07:49:57;;;;;;;20.25;18.05;;;15.50;99.90;;;;;;4916695;29;20486;-79
2023/06/28 07:52:23;;;;;;;24.08;17.58;;;15.60;99.90;;;;;;4900603;29;20040;-79
2023/06/28 07:54:48;;;;;;;18.77;16.88;;;15.70;99.90;;;;;;4917534;29;20038;-79
2023/06/28 07:57:14;;;;;;;19.90;17.00;;;15.80;99.90;;;;;;4917024;29;20082;-78
2023/06/28 07:59:39;;;;;;;20.52;15.20;;;15.90;99.90;;;;;;4917812;29;20055;-77
2023/06/28 08:02:05;;;;;;;21.08;17.50;;;15.90;99.90;;;;;;4900072;29;20051;-78
2023/06/28 08:04:31;;;;;;;20.38;15.13;;;15.90;99.90;;;;;;4916570;29;20118;-78
2023/06/28 08:06:56;;;;;;;17.73;14.88;;;15.90;99.90;;;;;;4917670;29;20553;-78
2023/06/28 08:09:22;;;;;;;19.05;15.38;;;15.90;99.90;;;;;;4917145;29;20043;-78
2023/06/28 08:11:48;;;;;;;19.90;16.45;;;15.90;99.90;;;;;;4915843;29;20036;-78
2023/06/28 08:14:13;;;;;;;18.15;16.02;;;15.90;99.90;;;;;;4916422;29;20047;-78
2023/06/28 08:16:39;;;;;;;17.73;14.73;;;15.90;99.90;;;;;;4917551;29;20122;-78
2023/06/28 08:19:04;;;;;;;19.00;14.50;;;16.00;99.90;;;;;;4917269;29;20046;-77
2023/06/28 08:21:30;;;;;;;20.10;16.88;;;16.00;99.90;;;;;;4915769;29;20044;-77
2023/06/28 08:23:56;;;;;;;17.02;15.23;;;16.00;99.90;;;;;;4915708;29;20066;-77
2023/06/28 08:26:21;;;;;;;21.52;18.25;;;16.00;99.90;;;;;;4917769;29;20062;-77
2023/06/28 08:28:47;;;;;;;19.45;17.35;;;16.00;99.90;;;;;;4918329;29;20509;-77
2023/06/28 08:31:13;;;;;;;18.63;16.63;;;16.10;99.90;;;;;;4917967;29;20529;-77
2023/06/28 08:33:39;;;;;;;20.88;17.90;;;16.10;99.90;;;;;;4898903;29;20473;-77
2023/06/28 08:36:04;;;;;;;19.73;16.33;;;16.20;99.90;;;;;;4914409;29;20090;-77
2023/06/28 08:38:30;;;;;;;22.92;18.65;;;16.30;99.90;;;;;;4902498;29;20045;-77
2023/06/28 08:40:56;;;;;;;22.95;19.83;;;16.20;99.90;;;;;;4917546;29;20043;-77
2023/06/28 08:43:23;;;;;;;25.30;20.40;;;16.30;99.90;;;;;;4917178;29;20093;-77
2023/06/28 08:45:49;;;;;;;19.00;16.10;;;16.30;99.90;;;;;;4917601;29;20119;-77
2023/06/28 08:48:16;;;;;;;20.30;17.33;;;16.30;99.90;;;;;;4901960;29;20130;-77
2023/06/28 08:50:44;;;;;;;27.35;21.63;;;16.30;99.90;;;;;;4902300;29;20052;-77
2023/06/28 08:53:16;;;;;;;23.73;18.38;;;16.30;99.90;;;;;;4916475;29;20055;-77
2023/06/28 08:55:42;;;;;;;21.00;18.10;;;16.40;99.90;;;;;;4917237;29;20035;-77
2023/06/28 08:58:10;;;;;;;22.02;17.15;;;16.40;99.90;;;;;;4917518;29;20071;-77
2023/06/28 09:00:35;;;;;;;20.15;18.05;;;16.40;99.90;;;;;;4933523;29;20051;-77
2023/06/28 09:03:01;;;;;;;21.27;18.75;;;16.40;99.90;;;;;;4917054;29;20036;-77
2023/06/28 09:05:27;;;;;;;20.60;18.50;;;16.40;99.90;;;;;;4917608;29;20036;-77
2023/06/28 09:07:54;;;;;;;22.17;19.20;;;16.40;99.90;;;;;;4917319;29;20043;-77
2023/06/28 09:10:21;;;;;;;24.27;20.60;;;16.40;99.90;;;;;;4916847;29;20043;-77
2023/06/28 09:12:48;;;;;;;26.65;21.33;;;16.40;99.90;;;;;;4916890;29;20506;-77
2023/06/28 09:15:16;;;;;;;22.83;19.23;;;16.40;99.90;;;;;;4933009;29;20560;-77
2023/06/28 09:17:42;;;;;;;19.75;17.65;;;16.40;99.90;;;;;;4917401;29;20494;-78
2023/06/28 09:20:16;;;;;;;21.27;17.83;;;16.40;99.90;;;;;;4917265;29;20044;-78
2023/06/28 09:22:42;;;;;;;21.95;19.50;;;16.40;99.90;;;;;;4916565;29;20514;-78
2023/06/28 09:25:14;;;;;;;23.02;20.63;;;16.30;99.90;;;;;;4917238;29;20048;-78
2023/06/28 09:27:42;;;;;;;24.15;19.83;;;16.40;99.90;;;;;;4916520;29;20047;-78
2023/06/28 09:30:09;;;;;;;25.30;20.13;;;16.30;99.90;;;;;;4917071;29;20593;-78
2023/06/28 09:32:52;;;;;;;24.52;21.05;;;16.30;99.90;;;;;;4916791;29;20036;-78
2023/06/28 09:35:19;;;;;;;28.75;23.40;;;16.30;99.90;;;;;;4916957;29;20040;-78
2023/06/28 09:37:54;;;;;;;24.88;22.40;;;16.30;99.90;;;;;;4901465;29;20031;-78
2023/06/28 09:40:20;;;;;;;29.38;22.25;;;16.30;99.90;;;;;;4917214;29;20134;-78
2023/06/28 09:42:48;;;;;;;23.58;21.17;;;16.30;99.90;;;;;;4916640;29;20122;-78
2023/06/28 09:45:26;;;;;;;26.98;23.85;;;16.40;99.90;;;;;;4916926;29;20070;-78
2023/06/28 09:47:57;;;;;;;24.90;22.40;;;16.40;99.90;;;;;;4898912;29;20052;-78
2023/06/28 09:50:33;;;;;;;25.52;22.98;;;16.50;99.90;;;;;;4910711;29;20036;-79
2023/06/28 09:52:59;;;;;;;26.20;23.75;;;16.60;99.90;;;;;;4916594;29;20047;-78
2023/06/28 09:55:25;;;;;;;26.85;24.25;;;16.70;99.90;;;;;;4918699;29;20036;-78
2023/06/28 09:57:51;;;;;;;24.33;22.02;;;16.90;99.90;;;;;;4919762;29;20094;-78
2023/06/28 10:00:18;;;;;;;23.25;21.05;;;16.90;99.90;;;;;;4919279;29;20506;-78
2023/06/28 10:02:45;;;;;;;22.80;20.63;;;16.90;99.90;;;;;;4920173;29;20078;-78
2023/06/28 10:05:11;;;;;;;22.30;20.00;;;17.00;99.90;;;;;;4920369;29;20122;-78
2023/06/28 10:07:38;;;;;;;23.75;21.55;;;17.00;99.90;;;;;;4919477;29;20138;-78
2023/06/28 10:10:04;;;;;;;23.38;21.20;;;16.90;99.90;;;;;;4920091;29;20051;-78
2023/06/28 10:12:31;;;;;;;23.08;21.08;;;17.00;99.90;;;;;;4919153;29;20134;-78
2023/06/28 10:15:09;;;;;;;23.15;21.10;;;17.00;99.90;;;;;;4919007;29;20076;-78
2023/06/28 10:17:35;;;;;;;23.83;21.42;;;17.00;99.90;;;;;;4912923;29;20152;-78
2023/06/28 10:20:03;;;;;;;23.52;21.42;;;17.00;99.90;;;;;;4920166;29;20115;-78
2023/06/28 10:22:29;;;;;;;23.30;21.30;;;17.10;99.90;;;;;;4918297;29;20086;-77
2023/06/28 10:24:56;;;;;;;22.30;20.50;;;17.30;99.90;;;;;;4919619;29;20423;-78
2023/06/28 10:27:22;;;;;;;22.85;20.95;;;17.50;99.90;;;;;;4919785;29;20506;-79
2023/06/28 10:29:50;;;;;;;22.67;20.73;;;17.60;99.90;;;;;;4919809;29;20075;-78
2023/06/28 10:32:16;;;;;;;24.10;22.02;;;17.70;99.90;;;;;;4916542;29;20502;-77
2023/06/28 10:34:42;;;;;;;23.13;21.23;;;17.80;99.90;;;;;;4918061;29;20114;-77
2023/06/28 10:37:08;;;;;;;21.30;19.55;;;17.90;99.90;;;;;;4919558;29;20054;-76
2023/06/28 10:39:35;;;;;;;23.92;21.95;;;17.90;99.90;;;;;;4916334;29;20043;-78
2023/06/28 10:42:00;;;;;;;24.50;22.40;;;18.00;99.90;;;;;;4901849;29;20405;-78
2023/06/28 10:44:26;;;;;;;24.52;22.55;;;18.00;99.90;;;;;;4919568;29;20158;-78
2023/06/28 10:47:09;;;;;;;26.10;23.95;;;18.00;99.90;;;;;;4918679;29;20078;-78
2023/06/28 10:49:35;;;;;;;24.92;22.70;;;17.90;99.90;;;;;;4916287;29;20043;-78
2023/06/28 10:52:01;;;;;;;26.25;24.10;;;17.80;99.90;;;;;;4898660;29;20042;-78
2023/06/28 10:54:27;;;;;;;28.33;25.92;;;17.70;99.90;;;;;;4917979;29;20065;-78
2023/06/28 10:56:58;;;;;;;27.60;25.30;;;17.60;99.90;;;;;;4919421;29;20126;-78
2023/06/28 10:59:26;;;;;;;29.75;27.23;;;17.50;99.90;;;;;;4918916;29;20122;-78
2023/06/28 11:01:53;;;;;;;31.52;28.88;;;17.40;99.90;;;;;;4918678;29;20538;-77
2023/06/28 11:04:24;;;;;;;30.40;27.95;;;17.40;99.90;;;;;;4919061;29;20047;-78
2023/06/28 11:07:14;;;;;;;30.70;28.17;;;17.50;99.90;;;;;;4903007;29;20040;-78
2023/06/28 11:09:40;;;;;;;31.65;29.15;;;17.40;99.90;;;;;;4911133;29;20055;-78
2023/06/28 11:12:11;;;;;;;32.22;29.55;;;17.40;99.90;;;;;;4917136;29;20031;-78
2023/06/28 11:14:37;;;;;;;32.35;29.65;;;17.50;99.90;;;;;;4918967;29;20043;-78
2023/06/28 11:17:10;;;;;;;36.20;33.00;;;17.40;99.90;;;;;;4934661;29;20039;-78
2023/06/28 11:19:38;;;;;;;33.15;30.25;;;17.40;99.90;;;;;;4916895;29;20091;-78
2023/06/28 11:22:04;;;;;;;33.85;30.92;;;17.40;99.90;;;;;;4918690;29;20079;-78
2023/06/28 11:24:32;;;;;;;32.72;30.02;;;17.50;99.90;;;;;;4918873;29;20091;-78
2023/06/28 11:26:58;;;;;;;33.40;30.60;;;17.60;99.90;;;;;;4917870;29;20043;-78
2023/06/28 11:29:24;;;;;;;31.23;28.38;;;17.60;99.90;;;;;;4917673;29;20050;-78
2023/06/28 11:31:52;;;;;;;34.78;31.38;;;17.60;99.90;;;;;;4916100;29;20040;-78
2023/06/28 11:34:19;;;;;;;33.78;30.60;;;17.70;99.90;;;;;;4916244;29;20126;-78
2023/06/28 11:36:49;;;;;;;32.00;28.77;;;17.80;99.90;;;;;;4917914;29;20040;-78
2023/06/28 11:39:17;;;;;;;33.83;30.73;;;18.00;99.90;;;;;;4932075;29;20103;-78
2023/06/28 11:41:43;;;;;;;34.05;30.95;;;18.10;99.90;;;;;;4916198;29;20102;-78
2023/06/28 11:44:09;;;;;;;31.77;28.75;;;18.30;99.90;;;;;;4917315;29;20038;-78
2023/06/28 11:46:36;;;;;;;32.05;28.95;;;18.40;99.90;;;;;;4916207;29;20043;-78
2023/06/28 11:49:02;;;;;;;31.27;28.27;;;18.50;99.90;;;;;;4916892;29;20099;-79
2023/06/28 11:51:30;;;;;;;32.38;29.33;;;18.50;99.90;;;;;;4915569;29;20390;-78
2023/06/28 11:53:56;;;;;;;30.38;27.33;;;18.60;99.90;;;;;;4901844;29;20494;-78
2023/06/28 11:56:39;;;;;;;30.05;27.02;;;18.70;99.90;;;;;;4917743;29;20527;-78
2023/06/28 11:59:31;;;;;;;28.38;25.45;;;18.70;99.90;;;;;;4915520;29;20118;-78
2023/06/28 12:02:07;;;;;;;28.58;25.88;;;18.70;99.90;;;;;;4910420;29;20058;-78
2023/06/28 12:04:35;;;;;;;29.83;26.80;;;18.80;99.90;;;;;;4909533;29;20044;-78
2023/06/28 12:07:04;;;;;;;27.92;25.20;;;18.70;99.90;;;;;;4917188;29;20047;-78
2023/06/28 12:09:31;;;;;;;27.50;24.88;;;18.70;99.90;;;;;;4917053;29;20498;-79
2023/06/28 12:11:58;;;;;;;29.42;26.38;;;18.70;99.90;;;;;;4917358;29;20051;-78
2023/06/28 12:14:28;;;;;;;29.60;26.77;;;18.70;99.90;;;;;;4932938;29;20102;-78
2023/06/28 12:16:55;;;;;;;29.83;26.70;;;18.70;99.90;;;;;;4915108;29;20051;-79
2023/06/28 12:19:26;;;;;;;25.88;23.38;;;18.70;99.90;;;;;;4930627;29;20491;-78
2023/06/28 12:21:53;;;;;;;27.95;24.83;;;18.70;99.90;;;;;;4915779;29;20462;-78
2023/06/28 12:24:26;;;;;;;25.73;23.02;;;18.70;99.90;;;;;;4917545;29;20645;-77
2023/06/28 12:26:56;;;;;;;27.03;24.17;;;18.70;99.90;;;;;;4907196;29;20059;-77
2023/06/28 12:29:24;;;;;;;29.77;26.67;;;18.70;99.90;;;;;;4900838;29;20314;-77
2023/06/28 12:31:52;;;;;;;28.90;25.98;;;18.80;99.90;;;;;;4916465;29;20074;-77
2023/06/28 12:34:29;;;;;;;26.75;24.02;;;18.90;99.90;;;;;;4931549;29;20052;-77
2023/06/28 12:36:57;;;;;;;26.58;24.02;;;19.00;99.90;;;;;;4916210;29;20174;-77
2023/06/28 12:39:24;;;;;;;26.05;23.40;;;19.10;99.90;;;;;;4917508;29;20446;-77
2023/06/28 12:42:01;;;;;;;26.80;23.95;;;19.10;99.90;;;;;;4919931;29;20074;-77
2023/06/28 12:44:31;;;;;;;27.95;25.15;;;19.20;99.90;;;;;;4915604;29;20039;-77
2023/06/28 12:46:57;;;;;;;27.63;24.73;;;19.30;99.90;;;;;;4916744;29;20469;-77
2023/06/28 12:49:33;;;;;;;27.88;25.05;;;19.30;99.90;;;;;;4914267;29;20541;-78
2023/06/28 12:51:59;;;;;;;28.25;25.48;;;19.30;99.90;;;;;;4912720;29;20517;-78
2023/06/28 12:54:25;;;;;;;27.15;24.58;;;19.30;99.90;;;;;;4917082;29;20035;-78
2023/06/28 12:56:50;;;;;;;27.17;24.38;;;19.30;99.90;;;;;;4917369;29;20062;-78
2023/06/28 12:59:16;;;;;;;25.92;23.40;;;19.30;99.90;;;;;;4917638;29;20046;-78
2023/06/28 13:01:41;;;;;;;26.25;23.55;;;19.20;99.90;;;;;;4916197;29;20121;-78
2023/06/28 13:04:07;;;;;;;26.48;23.90;;;19.20;99.90;;;;;;4913045;29;20048;-78
2023/06/28 13:06:32;;;;;;;28.10;25.40;;;19.30;99.90;;;;;;4917641;29;20044;-78
2023/06/28 13:08:58;;;;;;;27.05;24.35;;;19.30;99.90;;;;;;4917512;29;20444;-78
2023/06/28 13:11:29;;;;;;;28.00;25.30;;;19.40;99.90;;;;;;4915819;29;20039;-77
2023/06/28 13:13:55;;;;;;;26.35;23.88;;;19.30;99.90;;;;;;4900635;29;20083;-77
2023/06/28 13:16:20;;;;;;;27.67;24.90;;;19.30;99.90;;;;;;4915321;29;20470;-78
2023/06/28 13:18:46;;;;;;;30.17;27.15;;;19.20;99.90;;;;;;4915184;29;20058;-77
2023/06/28 13:21:11;;;;;;;29.13;25.98;;;19.10;99.90;;;;;;4913396;29;20079;-77
2023/06/28 13:23:37;;;;;;;28.75;25.75;;;19.20;99.90;;;;;;4917193;29;20490;-77
2023/06/28 13:26:03;;;;;;;29.55;26.55;;;19.20;99.90;;;;;;4919361;29;20047;-76
2023/06/28 13:28:28;;;;;;;28.38;25.35;;;19.20;99.90;;;;;;4918750;29;20066;-76
2023/06/28 13:30:54;;;;;;;30.67;27.08;;;19.30;99.90;;;;;;4917775;29;20027;-76
2023/06/28 13:33:20;;;;;;;30.42;26.98;;;19.50;99.90;;;;;;4917763;29;20549;-76
2023/06/28 13:35:45;;;;;;;27.50;24.75;;;19.70;99.90;;;;;;4920603;29;20069;-76
2023/06/28 13:38:11;;;;;;;27.67;24.95;;;19.80;99.90;;;;;;4920875;29;20065;-76
2023/06/28 13:40:37;;;;;;;27.80;24.88;;;20.00;99.90;;;;;;4920668;29;20488;-76
2023/06/28 13:43:04;;;;;;;27.20;24.40;;;20.20;99.90;;;;;;4927388;29;20071;-76
2023/06/28 13:45:30;;;;;;;26.40;23.60;;;20.20;99.90;;;;;;4919732;29;20047;-76
2023/06/28 13:47:56;;;;;;;27.70;24.83;;;20.20;99.90;;;;;;4919472;29;20090;-76
2023/06/28 13:50:22;;;;;;;27.67;24.65;;;20.20;99.90;;;;;;4920178;29;20036;-76
2023/06/28 13:52:47;;;;;;;27.48;24.58;;;20.20;99.90;;;;;;4904914;29;20043;-76
2023/06/28 13:55:13;;;;;;;28.67;25.80;;;20.20;99.90;;;;;;4920425;29;20548;-76
2023/06/28 13:57:39;;;;;;;28.05;25.13;;;20.10;99.90;;;;;;4918537;29;20035;-76
2023/06/28 14:00:05;;;;;;;27.38;24.45;;;19.90;99.90;;;;;;4918696;29;20051;-76
2023/06/28 14:02:30;;;;;;;26.77;24.08;;;19.80;99.90;;;;;;4904371;29;20102;-76
2023/06/28 14:04:56;;;;;;;28.85;25.90;;;19.70;99.90;;;;;;4902601;29;20051;-78
2023/06/28 14:07:22;;;;;;;28.52;25.90;;;19.60;99.90;;;;;;4918810;29;20043;-76
2023/06/28 14:09:47;;;;;;;26.33;23.60;;;19.50;99.90;;;;;;4920307;29;20067;-76
2023/06/28 14:12:13;;;;;;;25.63;23.00;;;19.40;99.90;;;;;;4920231;29;20032;-76
2023/06/28 14:14:40;;;;;;;26.30;23.50;;;19.40;99.90;;;;;;4919053;29;20051;-76
2023/06/28 14:17:06;;;;;;;27.67;23.65;;;19.40;99.90;;;;;;4918555;29;20043;-76
2023/06/28 14:19:32;;;;;;;29.70;26.60;;;19.30;99.90;;;;;;4917926;29;20035;-76
2023/06/28 14:21:57;;;;;;;28.73;25.83;;;19.30;99.90;;;;;;4919078;29;20090;-76
2023/06/28 14:24:23;;;;;;;28.05;24.10;;;19.40;99.90;;;;;;4918681;29;20051;-76
2023/06/28 14:26:52;;;;;;;26.30;23.55;;;19.50;99.90;;;;;;4919411;29;20472;-76
2023/06/28 14:29:18;;;;;;;25.17;22.80;;;19.80;99.90;;;;;;4916961;29;20513;-76
2023/06/28 14:31:44;;;;;;;28.08;24.80;;;20.10;99.90;;;;;;4916691;29;20083;-76
2023/06/28 14:34:10;;;;;;;25.48;22.90;;;20.30;99.90;;;;;;4918784;29;20426;-76
2023/06/28 14:36:36;;;;;;;27.95;22.77;;;20.50;99.90;;;;;;4919375;29;20043;-76
2023/06/28 14:39:02;;;;;;;26.13;23.45;;;20.70;99.90;;;;;;4915385;29;20048;-76
2023/06/28 14:41:28;;;;;;;25.80;23.25;;;20.80;99.90;;;;;;4915476;29;20509;-76
2023/06/28 14:43:54;;;;;;;25.80;23.17;;;20.70;99.90;;;;;;4915799;29;20039;-76
2023/06/28 14:46:19;;;;;;;25.95;23.33;;;20.60;99.90;;;;;;4918226;29;20075;-76
2023/06/28 14:48:46;;;;;;;26.85;23.67;;;20.60;99.90;;;;;;4919510;29;20102;-76
2023/06/28 14:51:11;;;;;;;25.52;23.02;;;20.50;99.90;;;;;;4919619;29;20039;-76
2023/06/28 14:53:38;;;;;;;25.67;22.13;;;20.60;99.90;;;;;;4918426;29;20138;-76
2023/06/28 14:56:04;;;;;;;24.88;22.23;;;20.60;99.90;;;;;;4919357;29;20048;-76
2023/06/28 14:58:30;;;;;;;25.63;22.70;;;20.70;99.90;;;;;;4918562;29;20044;-76
2023/06/28 15:00:55;;;;;;;25.55;22.85;;;20.70;99.90;;;;;;4919637;29;20522;-77
2023/06/28 15:03:21;;;;;;;26.13;23.50;;;20.70;99.90;;;;;;4917983;29;20036;-77
2023/06/28 15:05:48;;;;;;;26.95;23.23;;;20.80;99.90;;;;;;4920011;29;20048;-79
2023/06/28 15:08:14;;;;;;;25.20;22.60;;;20.80;99.90;;;;;;4920370;29;20394;-78
2023/06/28 15:10:40;;;;;;;25.23;22.63;;;20.80;99.90;;;;;;4920106;29;20044;-77
2023/06/28 15:13:05;;;;;;;24.02;21.58;;;20.80;99.90;;;;;;4919470;29;20044;-78
2023/06/28 15:15:31;;;;;;;23.88;21.27;;;20.80;99.90;;;;;;4918218;29;20054;-77
2023/06/28 15:17:57;;;;;;;24.67;22.17;;;20.80;99.90;;;;;;4903411;29;20126;-78
2023/06/28 15:20:23;;;;;;;25.13;22.45;;;20.80;99.90;;;;;;4919810;29;20051;-77
2023/06/28 15:22:49;;;;;;;24.15;21.83;;;20.80;99.90;;;;;;4916639;29;20040;-78
2023/06/28 15:25:15;;;;;;;25.38;22.67;;;20.80;99.90;;;;;;4919464;29;20578;-80
2023/06/28 15:27:41;;;;;;;25.55;22.85;;;20.70;99.90;;;;;;4920001;29;20075;-80
2023/06/28 15:30:07;;;;;;;23.95;21.52;;;20.60;99.90;;;;;;4919603;29;20403;-80
2023/06/28 15:32:33;;;;;;;24.25;21.75;;;20.50;99.90;;;;;;4903768;29;20114;-80
2023/06/28 15:34:58;;;;;;;25.60;22.95;;;20.40;99.90;;;;;;4920129;29;20502;-79
2023/06/28 15:37:24;;;;;;;26.27;23.00;;;20.30;99.90;;;;;;4918127;29;20050;-78
2023/06/28 15:39:49;;;;;;;25.25;22.85;;;20.20;99.90;;;;;;4917422;29;20040;-77
2023/06/28 15:42:15;;;;;;;25.95;23.17;;;20.10;99.90;;;;;;4918971;29;20562;-77
2023/06/28 15:44:40;;;;;;;25.95;23.08;;;20.00;99.90;;;;;;4918642;29;20035;-78
2023/06/28 15:47:09;;;;;;;28.30;25.23;;;19.90;99.90;;;;;;4902545;29;20043;-78
2023/06/28 15:49:35;;;;;;;29.40;26.23;;;19.80;99.90;;;;;;4917181;29;20508;-76
2023/06/28 15:52:00;;;;;;;28.63;25.73;;;19.70;99.90;;;;;;4918402;29;20115;-77
2023/06/28 15:54:26;;;;;;;28.48;25.67;;;19.60;99.90;;;;;;4918694;29;20043;-78
2023/06/28 15:56:52;;;;;;;31.25;27.95;;;19.50;99.90;;;;;;4916400;29;20043;-77
2023/06/28 15:59:19;;;;;;;29.05;25.95;;;19.40;99.90;;;;;;4917885;29;20506;-76
2023/06/28 16:01:45;;;;;;;31.40;27.92;;;19.40;99.90;;;;;;4914055;29;20067;-77
2023/06/28 16:04:11;;;;;;;30.42;27.35;;;19.20;99.90;;;;;;4915742;29;20091;-78
2023/06/28 16:06:36;;;;;;;30.60;27.15;;;19.20;99.90;;;;;;4912766;29;20046;-77
2023/06/28 16:09:03;;;;;;;33.67;30.17;;;19.10;99.90;;;;;;4917914;29;20044;-78
2023/06/28 16:11:30;;;;;;;31.92;28.50;;;19.00;99.90;;;;;;4916851;29;20036;-78
2023/06/28 16:13:56;;;;;;;34.45;30.65;;;19.00;99.90;;;;;;4917492;29;20043;-77
2023/06/28 16:16:22;;;;;;;32.97;29.55;;;18.90;99.90;;;;;;4910344;29;20048;-78
2023/06/28 16:18:48;;;;;;;41.85;32.70;;;18.90;99.90;;;;;;4899785;29;20410;-77
2023/06/28 16:21:13;;;;;;;33.03;29.55;;;18.90;99.90;;;;;;4884267;29;20570;-78
2023/06/28 16:23:39;;;;;;;32.88;28.08;;;18.80;99.90;;;;;;4916062;29;20071;-76
2023/06/28 16:26:05;;;;;;;32.30;29.02;;;18.80;99.90;;;;;;4917102;29;20044;-76
2023/06/28 16:28:31;;;;;;;40.28;31.58;;;18.80;99.90;;;;;;4917663;29;20132;-77
2023/06/28 16:30:58;;;;;;;37.13;30.55;;;18.90;99.90;;;;;;4901854;29;20160;-77
2023/06/28 16:33:23;;;;;;;30.67;27.42;;;18.90;99.90;;;;;;4917212;29;20075;-77
2023/06/28 16:35:49;;;;;;;31.30;27.77;;;19.00;99.90;;;;;;4916541;29;20071;-77
2023/06/28 16:38:14;;;;;;;29.73;26.52;;;19.00;99.90;;;;;;4915239;29;20039;-76
2023/06/28 16:40:40;;;;;;;30.38;27.17;;;19.10;99.90;;;;;;4917921;29;20164;-77
2023/06/28 16:43:05;;;;;;;29.75;26.52;;;19.10;99.90;;;;;;4917794;29;20574;-77
2023/06/28 16:45:31;;;;;;;30.75;27.63;;;19.20;99.90;;;;;;4932463;29;20044;-76
2023/06/28 16:47:58;;;;;;;29.60;26.48;;;19.20;99.90;;;;;;4915801;29;20129;-76
2023/06/28 16:50:23;;;;;;;30.23;26.98;;;19.30;99.90;;;;;;4931569;29;20036;-76
2023/06/28 16:52:49;;;;;;;29.70;26.83;;;19.30;99.90;;;;;;4917661;29;20031;-76
2023/06/28 16:55:14;;;;;;;29.90;26.30;;;19.40;99.90;;;;;;4907598;29;20047;-77
2023/06/28 16:57:40;;;;;;;27.95;25.00;;;19.50;99.90;;;;;;4915018;29;20487;-77
2023/06/28 17:00:07;;;;;;;29.20;26.23;;;19.70;99.90;;;;;;4915966;29;20058;-78
2023/06/28 17:02:33;;;;;;;27.42;24.60;;;19.80;99.90;;;;;;4908850;29;20054;-75
2023/06/28 17:04:59;;;;;;;27.38;24.70;;;19.90;99.90;;;;;;4898188;29;20044;-76
2023/06/28 17:07:25;;;;;;;27.95;25.00;;;20.00;99.90;;;;;;4916367;29;20414;-77
2023/06/28 17:09:52;;;;;;;26.20;23.52;;;20.10;99.90;;;;;;4917173;29;20051;-77
2023/06/28 17:12:18;;;;;;;28.52;25.55;;;20.10;99.90;;;;;;4915983;29;20077;-77
2023/06/28 17:14:44;;;;;;;27.55;24.73;;;20.10;99.90;;;;;;4900099;29;20046;-77
2023/06/28 17:17:10;;;;;;;27.45;24.65;;;20.10;99.90;;;;;;4916353;29;20122;-77
2023/06/28 17:19:35;;;;;;;25.13;22.52;;;20.00;99.90;;;;;;4896009;29;20103;-77
2023/06/28 17:22:01;;;;;;;25.05;22.45;;;20.10;99.90;;;;;;4914460;29;20039;-77
2023/06/28 17:24:27;;;;;;;28.10;25.17;;;20.10;99.90;;;;;;4913032;29;20047;-77
2023/06/28 17:26:56;;;;;;;26.85;22.98;;;20.10;99.90;;;;;;4914790;29;20387;-77
2023/06/28 17:29:23;;;;;;;24.98;22.38;;;20.20;99.90;;;;;;4893614;29;20224;-77
2023/06/28 17:31:49;;;;;;;28.10;25.20;;;20.10;99.90;;;;;;4915279;29;20051;-77
2023/06/28 17:34:17;;;;;;;25.30;22.67;;;20.10;99.90;;;;;;4912346;29;20083;-77
2023/06/28 17:36:46;;;;;;;25.08;22.58;;;20.10;99.90;;;;;;4915411;29;20044;-77
2023/06/28 17:39:15;;;;;;;26.83;23.92;;;20.00;99.90;;;;;;4908675;29;20303;-77
2023/06/28 17:41:40;;;;;;;25.08;21.90;;;19.90;99.90;;;;;;4913428;29;20039;-77
2023/06/28 17:44:06;;;;;;;26.27;23.63;;;19.90;99.90;;;;;;4900506;29;20048;-77
2023/06/28 17:46:31;;;;;;;28.25;25.42;;;19.80;99.90;;;;;;4915872;29;20078;-77
2023/06/28 17:48:57;;;;;;;28.15;25.42;;;19.80;99.90;;;;;;4915159;29;20518;-77
2023/06/28 17:51:23;;;;;;;26.85;24.23;;;19.80;99.90;;;;;;4914627;29;20502;-77
2023/06/28 17:53:48;;;;;;;26.45;23.65;;;19.80;99.90;;;;;;4915725;29;20036;-77
2023/06/28 17:56:14;;;;;;;27.92;25.15;;;19.80;99.90;;;;;;4915837;29;20040;-77